createdAt,value
2023-04-17T00:00:02.000Z,7.4
2023-04-17T00:01:14.000Z,7
2023-04-17T00:02:27.000Z,6.1
2023-04-17T00:03:38.000Z,7
2023-04-17T00:04:50.000Z,7.4
2023-04-17T00:06:02.000Z,7
2023-04-17T00:07:14.000Z,7.7
2023-04-17T00:08:27.000Z,8.3
2023-04-17T00:09:39.000Z,7
2023-04-17T00:10:51.000Z,7
2023-04-17T00:12:03.000Z,7
2023-04-17T00:13:15.000Z,7
2023-04-17T00:14:28.000Z,7
2023-04-17T00:15:40.000Z,7.4
2023-04-17T00:16:52.000Z,7.4
2023-04-17T00:18:04.000Z,5.8
2023-04-17T00:19:15.000Z,7.7
2023-04-17T00:20:27.000Z,7
2023-04-17T00:21:40.000Z,8.3
2023-04-17T00:22:52.000Z,7.7
2023-04-17T00:24:04.000Z,7.7
2023-04-17T00:25:16.000Z,8.7
2023-04-17T00:26:28.000Z,7.7
2023-04-17T00:27:41.000Z,7.7
2023-04-17T00:28:53.000Z,7.7
2023-04-17T00:30:05.000Z,7
2023-04-17T00:31:17.000Z,7.7
2023-04-17T00:32:29.000Z,8.3
2023-04-17T00:33:42.000Z,7.4
2023-04-17T00:34:53.000Z,7.4
2023-04-17T00:36:05.000Z,7
2023-04-17T00:37:17.000Z,6.7
2023-04-17T00:38:29.000Z,8.3
2023-04-17T00:39:41.000Z,7
2023-04-17T00:40:54.000Z,8.3
2023-04-17T00:42:06.000Z,6.4
2023-04-17T00:43:18.000Z,7.4
2023-04-17T00:44:30.000Z,7
2023-04-17T00:45:42.000Z,7
2023-04-17T00:46:55.000Z,7
2023-04-17T00:48:07.000Z,6.4
2023-04-17T00:49:19.000Z,8.3
2023-04-17T00:50:30.000Z,7.4
2023-04-17T00:51:42.000Z,7
2023-04-17T00:52:55.000Z,8.3
2023-04-17T00:54:07.000Z,7
2023-04-17T00:55:19.000Z,7
2023-04-17T00:56:31.000Z,7
2023-04-17T00:57:43.000Z,7
2023-04-17T00:58:55.000Z,7
2023-04-17T01:00:08.000Z,7.4
2023-04-17T01:01:20.000Z,7
2023-04-17T01:02:32.000Z,6.4
2023-04-17T01:03:44.000Z,7.7
2023-04-17T01:04:56.000Z,7
2023-04-17T01:06:08.000Z,7.4
2023-04-17T01:07:20.000Z,6.7
2023-04-17T01:08:32.000Z,8
2023-04-17T01:09:44.000Z,8.3
2023-04-17T01:10:56.000Z,7
2023-04-17T01:12:08.000Z,7
2023-04-17T01:13:21.000Z,7
2023-04-17T01:14:33.000Z,6.7
2023-04-17T01:15:45.000Z,5.1
2023-04-17T01:16:57.000Z,7
2023-04-17T01:18:09.000Z,6.1
2023-04-17T01:19:22.000Z,9
2023-04-17T01:20:34.000Z,5.8
2023-04-17T01:21:45.000Z,6.7
2023-04-17T01:22:57.000Z,8
2023-04-17T01:24:09.000Z,7
2023-04-17T01:25:22.000Z,7
2023-04-17T01:26:34.000Z,7
2023-04-17T01:27:46.000Z,7
2023-04-17T01:28:58.000Z,8.3
2023-04-17T01:30:10.000Z,5.8
2023-04-17T01:31:22.000Z,7
2023-04-17T01:32:35.000Z,6.7
2023-04-17T01:33:47.000Z,8.3
2023-04-17T01:34:59.000Z,6.7
2023-04-17T01:36:11.000Z,5.8
2023-04-17T01:37:22.000Z,7
2023-04-17T01:38:35.000Z,6.7
2023-04-17T01:39:47.000Z,6.1
2023-04-17T01:40:59.000Z,7
2023-04-17T01:42:11.000Z,8
2023-04-17T01:43:23.000Z,6.7
2023-04-17T01:44:36.000Z,7
2023-04-17T01:45:48.000Z,7
2023-04-17T01:47:00.000Z,6.1
2023-04-17T01:48:12.000Z,7
2023-04-17T01:49:24.000Z,6.7
2023-04-17T01:50:36.000Z,7
2023-04-17T01:51:49.000Z,5.8
2023-04-17T01:53:00.000Z,7
2023-04-17T01:54:12.000Z,7
2023-04-17T01:55:24.000Z,7.7
2023-04-17T01:56:36.000Z,8
2023-04-17T01:57:49.000Z,6.7
2023-04-17T01:59:01.000Z,7
2023-04-17T02:00:13.000Z,6.7
2023-04-17T02:01:25.000Z,7
2023-04-17T02:02:37.000Z,6.1
2023-04-17T02:05:00.634Z,6.7
2023-04-17T02:05:02.000Z,8
2023-04-17T02:06:14.000Z,6.7
2023-04-17T02:07:26.000Z,6.7
2023-04-17T02:08:37.000Z,6.4
2023-04-17T02:09:49.000Z,6.7
2023-04-17T02:11:02.000Z,8
2023-04-17T02:12:14.000Z,6.1
2023-04-17T02:13:26.000Z,6.7
2023-04-17T02:14:38.000Z,5.8
2023-04-17T02:15:50.000Z,6.7
2023-04-17T02:17:03.000Z,7.7
2023-04-17T02:18:15.000Z,6.4
2023-04-17T02:19:27.000Z,8
2023-04-17T02:20:39.000Z,7
2023-04-17T02:21:51.000Z,7.4
2023-04-17T02:23:03.000Z,7
2023-04-17T02:24:15.000Z,6.7
2023-04-17T02:25:27.000Z,5.8
2023-04-17T02:26:39.000Z,6.7
2023-04-17T02:27:51.000Z,7
2023-04-17T02:29:03.000Z,5.8
2023-04-17T02:30:16.000Z,7.4
2023-04-17T02:31:28.000Z,7
2023-04-17T02:32:40.000Z,6.4
2023-04-17T02:33:52.000Z,5.8
2023-04-17T02:35:04.000Z,6.7
2023-04-17T02:36:17.000Z,7
2023-04-17T02:37:29.000Z,6.7
2023-04-17T02:38:41.000Z,7.7
2023-04-17T02:39:52.000Z,6.7
2023-04-17T02:41:04.000Z,7
2023-04-17T02:42:16.000Z,6.7
2023-04-17T02:43:29.000Z,6.7
2023-04-17T02:44:41.000Z,8
2023-04-17T02:45:53.000Z,6.4
2023-04-17T02:47:05.000Z,7.7
2023-04-17T02:48:17.000Z,7.4
2023-04-17T02:49:30.000Z,6.7
2023-04-17T02:50:42.000Z,6.7
2023-04-17T02:51:54.000Z,8.7
2023-04-17T02:53:06.000Z,6.7
2023-04-17T02:54:18.000Z,5.1
2023-04-17T02:55:30.000Z,7.4
2023-04-17T02:56:42.000Z,7.4
2023-04-17T02:57:54.000Z,7
2023-04-17T02:59:06.000Z,5.8
2023-04-17T03:00:18.000Z,5.8
2023-04-17T03:01:30.000Z,6.7
2023-04-17T03:02:43.000Z,6.7
2023-04-17T03:03:55.000Z,6.7
2023-04-17T03:05:07.000Z,5.8
2023-04-17T03:06:19.000Z,5.1
2023-04-17T03:07:31.000Z,6.7
2023-04-17T03:08:44.000Z,6.7
2023-04-17T03:09:56.000Z,6.7
2023-04-17T03:11:07.000Z,6.4
2023-04-17T03:12:19.000Z,6.7
2023-04-17T03:13:31.000Z,6.7
2023-04-17T03:14:44.000Z,6.7
2023-04-17T03:15:56.000Z,5.8
2023-04-17T03:17:08.000Z,6.4
2023-04-17T03:18:20.000Z,5.8
2023-04-17T03:19:32.000Z,6.4
2023-04-17T03:20:44.000Z,6.4
2023-04-17T03:21:57.000Z,6.1
2023-04-17T03:23:09.000Z,6.1
2023-04-17T03:24:21.000Z,6.7
2023-04-17T03:25:33.000Z,6.4
2023-04-17T03:26:44.000Z,7.7
2023-04-17T03:27:57.000Z,7.7
2023-04-17T03:29:09.000Z,6.7
2023-04-17T03:30:21.000Z,7
2023-04-17T03:31:33.000Z,6.7
2023-04-17T03:32:45.000Z,6.4
2023-04-17T03:33:57.000Z,9
2023-04-17T03:35:10.000Z,5.4
2023-04-17T03:36:22.000Z,7.4
2023-04-17T03:37:34.000Z,8.7
2023-04-17T03:38:46.000Z,6.4
2023-04-17T03:39:58.000Z,6.4
2023-04-17T03:41:11.000Z,7
2023-04-17T03:42:22.000Z,8
2023-04-17T03:43:34.000Z,7.4
2023-04-17T03:44:46.000Z,6.4
2023-04-17T03:45:58.000Z,6.7
2023-04-17T03:47:11.000Z,7.4
2023-04-17T03:48:23.000Z,6.7
2023-04-17T03:49:34.000Z,6.7
2023-04-17T03:50:46.000Z,7.4
2023-04-17T03:51:58.000Z,6.4
2023-04-17T03:53:10.000Z,7.7
2023-04-17T03:54:23.000Z,9
2023-04-17T03:55:35.000Z,6.7
2023-04-17T03:56:47.000Z,6.4
2023-04-17T03:57:59.000Z,6.7
2023-04-17T03:59:11.000Z,5.8
2023-04-17T04:00:24.000Z,6.7
2023-04-17T04:01:36.000Z,6.7
2023-04-17T04:02:48.000Z,5.4
2023-04-17T04:04:00.000Z,6.7
2023-04-17T04:05:11.000Z,7
2023-04-17T04:06:24.000Z,6.7
2023-04-17T04:07:36.000Z,6.1
2023-04-17T04:08:48.000Z,8
2023-04-17T04:10:00.000Z,6.7
2023-04-17T04:11:12.000Z,6.4
2023-04-17T04:12:24.000Z,6.4
2023-04-17T04:13:37.000Z,6.1
2023-04-17T04:14:49.000Z,6.4
2023-04-17T04:16:01.000Z,6.4
2023-04-17T04:17:13.000Z,6.7
2023-04-17T04:18:25.000Z,6.4
2023-04-17T04:19:38.000Z,6.7
2023-04-17T04:20:49.000Z,5.4
2023-04-17T04:22:01.000Z,9
2023-04-17T04:23:13.000Z,6.4
2023-04-17T04:24:25.000Z,6.4
2023-04-17T04:25:38.000Z,6.4
2023-04-17T04:26:50.000Z,5.1
2023-04-17T04:28:02.000Z,6.4
2023-04-17T04:29:14.000Z,5.4
2023-04-17T04:30:26.000Z,5.4
2023-04-17T04:31:38.000Z,6.7
2023-04-17T04:32:51.000Z,6.7
2023-04-17T04:34:03.000Z,5.8
2023-04-17T04:35:15.000Z,7
2023-04-17T04:36:26.000Z,6.4
2023-04-17T04:37:38.000Z,6.4
2023-04-17T04:38:51.000Z,6.1
2023-04-17T04:40:03.000Z,6.4
2023-04-17T04:41:15.000Z,6.4
2023-04-17T04:42:27.000Z,5.8
2023-04-17T04:43:39.000Z,6.4
2023-04-17T04:44:52.000Z,6.7
2023-04-17T04:46:04.000Z,6.4
2023-04-17T04:47:16.000Z,6.4
2023-04-17T04:48:28.000Z,6.7
2023-04-17T04:49:40.000Z,6.4
2023-04-17T04:50:52.000Z,5.8
2023-04-17T04:52:04.000Z,6.4
2023-04-17T04:53:16.000Z,6.4
2023-04-17T04:54:28.000Z,6.1
2023-04-17T04:55:40.000Z,6.4
2023-04-17T04:56:52.000Z,7
2023-04-17T04:58:05.000Z,6.4
2023-04-17T04:59:17.000Z,6.7
2023-04-17T05:00:29.000Z,5.1
2023-04-17T05:01:41.000Z,7.4
2023-04-17T05:02:53.000Z,6.4
2023-04-17T05:04:05.000Z,6.7
2023-04-17T05:05:18.000Z,7.7
2023-04-17T05:06:30.000Z,6.7
2023-04-17T05:07:41.000Z,7
2023-04-17T05:08:53.000Z,6.4
2023-04-17T05:10:05.000Z,6.7
2023-04-17T05:11:18.000Z,7
2023-04-17T05:12:30.000Z,6.1
2023-04-17T05:13:42.000Z,7.7
2023-04-17T05:14:54.000Z,6.4
2023-04-17T05:16:06.000Z,5.4
2023-04-17T05:17:19.000Z,5.8
2023-04-17T05:18:31.000Z,6.7
2023-04-17T05:19:43.000Z,5.4
2023-04-17T05:20:55.000Z,6.4
2023-04-17T05:22:07.000Z,6.4
2023-04-17T05:23:18.000Z,6.4
2023-04-17T05:24:31.000Z,5.4
2023-04-17T05:25:43.000Z,7.7
2023-04-17T05:26:55.000Z,6.1
2023-04-17T05:28:07.000Z,6.1
2023-04-17T05:29:19.000Z,6.4
2023-04-17T05:30:32.000Z,5.4
2023-04-17T05:31:44.000Z,6.4
2023-04-17T05:32:56.000Z,6.4
2023-04-17T05:34:08.000Z,6.1
2023-04-17T05:35:20.000Z,5.8
2023-04-17T05:36:33.000Z,6.4
2023-04-17T05:37:45.000Z,6.1
2023-04-17T05:38:56.000Z,7.7
2023-04-17T05:40:08.000Z,6.7
2023-04-17T05:41:20.000Z,7
2023-04-17T05:42:32.000Z,6.1
2023-04-17T05:43:45.000Z,7.4
2023-04-17T05:44:57.000Z,7.4
2023-04-17T05:46:09.000Z,6.4
2023-04-17T05:47:21.000Z,6.4
2023-04-17T05:48:33.000Z,6.4
2023-04-17T05:49:46.000Z,7.7
2023-04-17T05:50:58.000Z,7
2023-04-17T05:52:10.000Z,6.4
2023-04-17T05:53:22.000Z,6.1
2023-04-17T05:54:33.000Z,6.4
2023-04-17T05:55:46.000Z,6.7
2023-04-17T05:56:58.000Z,6.7
2023-04-17T05:58:10.000Z,5.8
2023-04-17T05:59:22.000Z,6.7
2023-04-17T06:00:34.000Z,6.1
2023-04-17T06:01:46.000Z,6.7
2023-04-17T06:02:59.000Z,6.4
2023-04-17T06:04:11.000Z,6.4
2023-04-17T06:05:23.000Z,6.1
2023-04-17T06:06:35.000Z,6.7
2023-04-17T06:07:47.000Z,7.4
2023-04-17T06:09:00.000Z,7
2023-04-17T06:10:11.000Z,7
2023-04-17T06:11:23.000Z,6.1
2023-04-17T06:12:35.000Z,6.4
2023-04-17T06:13:47.000Z,6.7
2023-04-17T06:15:00.000Z,7.4
2023-04-17T06:16:12.000Z,6.4
2023-04-17T06:17:24.000Z,6.4
2023-04-17T06:18:36.000Z,5.4
2023-04-17T06:19:48.000Z,5.8
2023-04-17T06:21:00.000Z,6.7
2023-04-17T06:22:13.000Z,6.1
2023-04-17T06:23:25.000Z,5.8
2023-04-17T06:24:37.000Z,5.8
2023-04-17T06:25:48.000Z,6.4
2023-04-17T06:27:00.000Z,6.4
2023-04-17T06:28:13.000Z,6.4
2023-04-17T06:29:25.000Z,6.4
2023-04-17T06:30:37.000Z,6.4
2023-04-17T06:31:49.000Z,5.4
2023-04-17T06:33:01.000Z,6.4
2023-04-17T06:34:14.000Z,5.8
2023-04-17T06:35:26.000Z,6.4
2023-04-17T06:36:38.000Z,6.4
2023-04-17T06:37:50.000Z,6.4
2023-04-17T06:39:02.000Z,5.4
2023-04-17T06:40:14.000Z,7.4
2023-04-17T06:41:26.000Z,7
2023-04-17T06:42:38.000Z,6.4
2023-04-17T06:43:50.000Z,6.4
2023-04-17T06:45:02.000Z,7.4
2023-04-17T06:46:14.000Z,6.4
2023-04-17T06:47:27.000Z,6.1
2023-04-17T06:48:39.000Z,5.4
2023-04-17T06:49:51.000Z,5.8
2023-04-17T06:51:03.000Z,6.4
2023-04-17T06:52:15.000Z,6.4
2023-04-17T06:53:27.000Z,7
2023-04-17T06:54:40.000Z,6.4
2023-04-17T06:55:52.000Z,7.7
2023-04-17T06:57:03.000Z,6.7
2023-04-17T06:58:15.000Z,6.7
2023-04-17T06:59:27.000Z,6.1
2023-04-17T07:00:40.000Z,7.7
2023-04-17T07:01:52.000Z,5.8
2023-04-17T07:03:04.000Z,7.4
2023-04-17T07:04:16.000Z,5.8
2023-04-17T07:05:28.000Z,8
2023-04-17T07:06:41.000Z,6.1
2023-04-17T07:07:53.000Z,5.8
2023-04-17T07:09:05.000Z,6.7
2023-04-17T07:10:17.000Z,8.3
2023-04-17T07:11:29.000Z,6.7
2023-04-17T07:12:40.000Z,5.8
2023-04-17T07:13:53.000Z,6.1
2023-04-17T07:15:05.000Z,5.8
2023-04-17T07:16:17.000Z,7
2023-04-17T07:17:29.000Z,7
2023-04-17T07:18:41.000Z,6.7
2023-04-17T07:19:54.000Z,6.4
2023-04-17T07:21:06.000Z,6.1
2023-04-17T07:22:18.000Z,7.7
2023-04-17T07:23:30.000Z,7
2023-04-17T07:24:42.000Z,7.7
2023-04-17T07:25:55.000Z,7
2023-04-17T07:27:07.000Z,7.4
2023-04-17T07:28:18.000Z,7.4
2023-04-17T07:29:30.000Z,9
2023-04-17T07:30:42.000Z,6.1
2023-04-17T07:31:54.000Z,7.4
2023-04-17T07:33:07.000Z,7.4
2023-04-17T07:34:19.000Z,7.4
2023-04-17T07:35:31.000Z,8
2023-04-17T07:36:43.000Z,7.7
2023-04-17T07:37:55.000Z,7.4
2023-04-17T07:39:08.000Z,7.4
2023-04-17T07:40:20.000Z,7.7
2023-04-17T07:41:32.000Z,6.7
2023-04-17T07:42:44.000Z,8
2023-04-17T07:43:55.000Z,7.7
2023-04-17T07:45:08.000Z,8
2023-04-17T07:46:20.000Z,8
2023-04-17T07:47:32.000Z,7.7
2023-04-17T07:48:44.000Z,7.4
2023-04-17T07:49:56.000Z,7.4
2023-04-17T07:51:07.000Z,7.7
2023-04-17T07:52:20.000Z,7.7
2023-04-17T07:53:32.000Z,9
2023-04-17T07:54:44.000Z,7.7
2023-04-17T07:55:56.000Z,7.7
2023-04-17T07:57:08.000Z,7.4
2023-04-17T07:58:21.000Z,8
2023-04-17T07:59:33.000Z,7.7
2023-04-17T08:00:45.000Z,8
2023-04-17T08:01:57.000Z,7
2023-04-17T08:03:09.000Z,8
2023-04-17T08:04:22.000Z,8
2023-04-17T08:05:34.000Z,8
2023-04-17T08:06:45.000Z,8
2023-04-17T08:07:57.000Z,8
2023-04-17T08:09:09.000Z,9
2023-04-17T08:10:21.000Z,8.3
2023-04-17T08:11:34.000Z,7.4
2023-04-17T08:12:46.000Z,8
2023-04-17T08:13:58.000Z,7
2023-04-17T08:15:10.000Z,8
2023-04-17T08:16:22.000Z,7.7
2023-04-17T08:17:35.000Z,8
2023-04-17T08:18:47.000Z,8.3
2023-04-17T08:19:59.000Z,8.3
2023-04-17T08:21:11.000Z,7.4
2023-04-17T08:22:22.000Z,7
2023-04-17T08:23:35.000Z,7.4
2023-04-17T08:24:47.000Z,8.7
2023-04-17T08:25:59.000Z,7.7
2023-04-17T08:27:11.000Z,7.4
2023-04-17T08:28:23.000Z,9
2023-04-17T08:29:35.000Z,8
2023-04-17T08:30:48.000Z,7
2023-04-17T08:32:00.000Z,8
2023-04-17T08:33:12.000Z,7
2023-04-17T08:34:24.000Z,8.7
2023-04-17T08:35:36.000Z,7.7
2023-04-17T08:36:49.000Z,8
2023-04-17T08:38:00.000Z,7.4
2023-04-17T08:39:12.000Z,9
2023-04-17T08:40:24.000Z,8
2023-04-17T08:41:36.000Z,7.7
2023-04-17T08:42:48.000Z,8.3
2023-04-17T08:44:01.000Z,7.4
2023-04-17T08:45:13.000Z,9
2023-04-17T08:46:25.000Z,7.4
2023-04-17T08:47:37.000Z,7.4
2023-04-17T08:48:49.000Z,8.7
2023-04-17T08:50:02.000Z,8
2023-04-17T08:51:14.000Z,9
2023-04-17T08:52:26.000Z,8
2023-04-17T08:53:37.000Z,8
2023-04-17T08:54:49.000Z,8
2023-04-17T08:56:02.000Z,7.7
2023-04-17T08:57:14.000Z,8.3
2023-04-17T08:58:26.000Z,9.6
2023-04-17T08:59:38.000Z,9
2023-04-17T09:00:50.000Z,7.7
2023-04-17T09:02:02.000Z,9.3
2023-04-17T09:03:15.000Z,8.7
2023-04-17T09:04:27.000Z,9.3
2023-04-17T09:05:39.000Z,9
2023-04-17T09:06:51.000Z,6.7
2023-04-17T09:08:03.000Z,9
2023-04-17T09:09:15.000Z,9
2023-04-17T09:10:27.000Z,9
2023-04-17T09:11:39.000Z,10.3
2023-04-17T09:12:51.000Z,9.6
2023-04-17T09:14:03.000Z,9.9
2023-04-17T09:15:16.000Z,9.3
2023-04-17T09:16:28.000Z,8.3
2023-04-17T09:17:40.000Z,8.7
2023-04-17T09:18:52.000Z,11.2
2023-04-17T09:20:04.000Z,9
2023-04-17T09:21:16.000Z,9.3
2023-04-17T09:22:29.000Z,9.3
2023-04-17T09:23:41.000Z,9
2023-04-17T09:24:52.000Z,9.3
2023-04-17T09:26:04.000Z,8.3
2023-04-17T09:27:16.000Z,9.6
2023-04-17T09:28:29.000Z,9.6
2023-04-17T09:29:41.000Z,10.6
2023-04-17T09:30:53.000Z,9.3
2023-04-17T09:32:05.000Z,9.9
2023-04-17T09:33:17.000Z,10.3
2023-04-17T09:34:30.000Z,10.6
2023-04-17T09:35:42.000Z,9.9
2023-04-17T09:36:54.000Z,11.6
2023-04-17T09:38:06.000Z,10.6
2023-04-17T09:39:18.000Z,10.6
2023-04-17T09:40:29.000Z,9.9
2023-04-17T09:41:42.000Z,12.2
2023-04-17T09:42:54.000Z,11.9
2023-04-17T09:44:06.000Z,10.6
2023-04-17T09:45:18.000Z,11.2
2023-04-17T09:46:30.000Z,11.2
2023-04-17T09:47:43.000Z,11.6
2023-04-17T09:48:55.000Z,11.2
2023-04-17T09:50:07.000Z,11.6
2023-04-17T09:51:19.000Z,11.2
2023-04-17T09:52:31.000Z,11.6
2023-04-17T09:53:44.000Z,10.3
2023-04-17T09:54:56.000Z,11.2
2023-04-17T09:56:07.000Z,10.9
2023-04-17T09:57:19.000Z,11.2
2023-04-17T09:58:31.000Z,11.2
2023-04-17T09:59:43.000Z,10.6
2023-04-17T10:00:56.000Z,10.3
2023-04-17T10:02:08.000Z,10.6
2023-04-17T10:03:20.000Z,10.3
2023-04-17T10:04:32.000Z,10.6
2023-04-17T10:05:44.000Z,10.9
2023-04-17T10:06:57.000Z,9.9
2023-04-17T10:08:09.000Z,10.3
2023-04-17T10:09:21.000Z,10.3
2023-04-17T10:10:33.000Z,10.3
2023-04-17T10:11:44.000Z,10.6
2023-04-17T10:12:56.000Z,10.6
2023-04-17T10:14:09.000Z,10.6
2023-04-17T10:15:21.000Z,10.6
2023-04-17T10:16:33.000Z,10.9
2023-04-17T10:17:45.000Z,9
2023-04-17T10:18:57.000Z,13.2
2023-04-17T10:20:10.000Z,10.6
2023-04-17T10:21:22.000Z,10.6
2023-04-17T10:22:34.000Z,11.9
2023-04-17T10:23:46.000Z,11.9
2023-04-17T10:24:58.000Z,12.2
2023-04-17T10:26:10.000Z,12.2
2023-04-17T10:27:22.000Z,12.2
2023-04-17T10:28:34.000Z,12.5
2023-04-17T10:29:46.000Z,12.5
2023-04-17T10:30:58.000Z,12.2
2023-04-17T10:32:10.000Z,12.8
2023-04-17T10:33:23.000Z,12.8
2023-04-17T10:34:35.000Z,13.2
2023-04-17T10:35:47.000Z,13.5
2023-04-17T10:36:59.000Z,14.1
2023-04-17T10:38:11.000Z,13.2
2023-04-17T10:39:24.000Z,14.1
2023-04-17T10:40:36.000Z,13.5
2023-04-17T10:41:48.000Z,12.5
2023-04-17T10:42:59.000Z,13.2
2023-04-17T10:44:11.000Z,12.8
2023-04-17T10:45:23.000Z,12.5
2023-04-17T10:46:36.000Z,11.9
2023-04-17T10:47:48.000Z,12.5
2023-04-17T10:49:00.000Z,14.1
2023-04-17T10:50:12.000Z,12.5
2023-04-17T10:51:24.000Z,12.8
2023-04-17T10:52:37.000Z,12.5
2023-04-17T10:53:49.000Z,12.2
2023-04-17T10:55:01.000Z,12.2
2023-04-17T10:56:13.000Z,12.5
2023-04-17T10:57:25.000Z,11.9
2023-04-17T10:58:37.000Z,12.5
2023-04-17T10:59:49.000Z,12.5
2023-04-17T11:01:01.000Z,12.5
2023-04-17T11:02:13.000Z,13.2
2023-04-17T11:03:25.000Z,14.1
2023-04-17T11:04:37.000Z,12.5
2023-04-17T11:05:50.000Z,12.5
2023-04-17T11:07:02.000Z,13.2
2023-04-17T11:08:14.000Z,12.2
2023-04-17T11:09:26.000Z,11.9
2023-04-17T11:10:38.000Z,12.2
2023-04-17T11:11:51.000Z,12.2
2023-04-17T11:13:03.000Z,11.6
2023-04-17T11:14:14.000Z,11.9
2023-04-17T11:15:26.000Z,12.8
2023-04-17T11:16:38.000Z,12.2
2023-04-17T11:17:50.000Z,14.1
2023-04-17T11:19:03.000Z,13.5
2023-04-17T11:20:15.000Z,14.1
2023-04-17T11:21:27.000Z,13.8
2023-04-17T11:22:39.000Z,14.1
2023-04-17T11:23:51.000Z,12.5
2023-04-17T11:25:04.000Z,13.2
2023-04-17T11:26:16.000Z,12.8
2023-04-17T11:27:28.000Z,11.9
2023-04-17T11:28:40.000Z,11.9
2023-04-17T11:29:51.000Z,12.2
2023-04-17T11:31:04.000Z,12.5
2023-04-17T11:32:16.000Z,14.5
2023-04-17T11:33:28.000Z,12.2
2023-04-17T11:34:40.000Z,12.5
2023-04-17T11:35:52.000Z,12.8
2023-04-17T11:37:04.000Z,12.5
2023-04-17T11:38:17.000Z,14.1
2023-04-17T11:39:29.000Z,13.5
2023-04-17T11:40:41.000Z,13.8
2023-04-17T11:41:53.000Z,14.1
2023-04-17T11:43:05.000Z,14.8
2023-04-17T11:44:18.000Z,13.8
2023-04-17T11:45:29.000Z,14.5
2023-04-17T11:46:41.000Z,15.1
2023-04-17T11:47:53.000Z,14.8
2023-04-17T11:49:05.000Z,13.5
2023-04-17T11:50:17.000Z,13.2
2023-04-17T11:51:30.000Z,12.8
2023-04-17T11:52:41.000Z,13.2
2023-04-17T11:53:53.000Z,13.2
2023-04-17T11:55:05.000Z,13.2
2023-04-17T11:56:17.000Z,12.5
2023-04-17T11:57:30.000Z,13.5
2023-04-17T11:58:42.000Z,13.5
2023-04-17T11:59:54.000Z,13.2
2023-04-17T12:01:06.000Z,13.2
2023-04-17T12:02:18.000Z,11.9
2023-04-17T12:03:31.000Z,13.2
2023-04-17T12:04:43.000Z,12.8
2023-04-17T12:05:55.000Z,13.5
2023-04-17T12:07:07.000Z,13.2
2023-04-17T12:08:18.000Z,12.2
2023-04-17T12:09:30.000Z,12.5
2023-04-17T12:10:43.000Z,12.5
2023-04-17T12:11:55.000Z,12.5
2023-04-17T12:13:07.000Z,12.5
2023-04-17T12:14:19.000Z,12.2
2023-04-17T12:15:31.000Z,12.5
2023-04-17T12:16:44.000Z,11.9
2023-04-17T12:17:56.000Z,12.8
2023-04-17T12:19:08.000Z,13.5
2023-04-17T12:20:20.000Z,12.5
2023-04-17T12:21:32.000Z,12.5
2023-04-17T12:22:44.000Z,12.2
2023-04-17T12:23:56.000Z,12.5
2023-04-17T12:25:08.000Z,12.2
2023-04-17T12:26:20.000Z,11.9
2023-04-17T12:27:32.000Z,12.5
2023-04-17T12:28:44.000Z,12.5
2023-04-17T12:29:57.000Z,11.6
2023-04-17T12:31:09.000Z,11.2
2023-04-17T12:32:21.000Z,12.2
2023-04-17T12:33:33.000Z,12.2
2023-04-17T12:34:45.000Z,11.9
2023-04-17T12:35:58.000Z,12.5
2023-04-17T12:37:10.000Z,12.8
2023-04-17T12:38:22.000Z,12.8
2023-04-17T12:39:33.000Z,12.8
2023-04-17T12:40:45.000Z,13.2
2023-04-17T12:41:57.000Z,12.5
2023-04-17T12:43:10.000Z,12.2
2023-04-17T12:44:22.000Z,12.8
2023-04-17T12:45:34.000Z,12.5
2023-04-17T12:46:46.000Z,12.5
2023-04-17T12:47:58.000Z,12.5
2023-04-17T12:49:11.000Z,12.8
2023-04-17T12:50:23.000Z,12.2
2023-04-17T12:51:35.000Z,12.5
2023-04-17T12:52:47.000Z,12.8
2023-04-17T12:53:59.000Z,12.8
2023-04-17T12:55:10.000Z,12.5
2023-04-17T12:56:23.000Z,13.5
2023-04-17T12:57:35.000Z,13.2
2023-04-17T12:58:47.000Z,12.5
2023-04-17T12:59:59.000Z,12.8
2023-04-17T13:01:11.000Z,12.5
2023-04-17T13:02:24.000Z,12.8
2023-04-17T13:03:36.000Z,12.8
2023-04-17T13:04:48.000Z,12.5
2023-04-17T13:06:00.000Z,12.8
2023-04-17T13:07:12.000Z,12.2
2023-04-17T13:08:25.000Z,12.2
2023-04-17T13:09:37.000Z,12.5
2023-04-17T13:10:48.000Z,12.8
2023-04-17T13:12:00.000Z,12.2
2023-04-17T13:13:12.000Z,12.2
2023-04-17T13:14:24.000Z,12.2
2023-04-17T13:15:37.000Z,12.8
2023-04-17T13:16:49.000Z,11.9
2023-04-17T13:18:01.000Z,11.2
2023-04-17T13:19:13.000Z,11.9
2023-04-17T13:20:25.000Z,12.8
2023-04-17T13:21:38.000Z,12.5
2023-04-17T13:22:50.000Z,12.8
2023-04-17T13:24:02.000Z,10.6
2023-04-17T13:25:14.000Z,13.5
2023-04-17T13:26:25.000Z,12.2
2023-04-17T13:27:37.000Z,12.5
2023-04-17T13:28:50.000Z,12.2
2023-04-17T13:30:02.000Z,11.6
2023-04-17T13:31:14.000Z,12.5
2023-04-17T13:32:26.000Z,12.2
2023-04-17T13:33:38.000Z,11.6
2023-04-17T13:34:51.000Z,11.9
2023-04-17T13:36:03.000Z,11.6
2023-04-17T13:37:15.000Z,11.9
2023-04-17T13:38:27.000Z,11.9
2023-04-17T13:40:50.922Z,10.9
2023-04-17T13:40:52.000Z,11.6
2023-04-17T13:42:03.000Z,13.2
2023-04-17T13:43:15.000Z,11.2
2023-04-17T13:44:27.000Z,11.6
2023-04-17T13:45:39.000Z,11.6
2023-04-17T13:46:51.000Z,11.6
2023-04-17T13:48:04.000Z,10.9
2023-04-17T13:49:16.000Z,10.9
2023-04-17T13:50:28.000Z,11.2
2023-04-17T13:51:40.000Z,11.9
2023-04-17T13:52:52.000Z,10.3
2023-04-17T13:54:05.000Z,10.6
2023-04-17T13:55:17.000Z,11.2
2023-04-17T13:56:29.000Z,11.6
2023-04-17T13:57:40.000Z,10.9
2023-04-17T13:58:52.000Z,10.6
2023-04-17T14:00:04.000Z,11.2
2023-04-17T14:01:17.000Z,11.2
2023-04-17T14:02:29.000Z,11.2
2023-04-17T14:03:41.000Z,10.6
2023-04-17T14:04:53.000Z,11.2
2023-04-17T14:06:05.000Z,10.6
2023-04-17T14:07:18.000Z,11.2
2023-04-17T14:08:30.000Z,11.2
2023-04-17T14:09:42.000Z,10.9
2023-04-17T14:10:54.000Z,10.9
2023-04-17T14:12:06.000Z,10.9
2023-04-17T14:13:18.000Z,10.9
2023-04-17T14:14:30.000Z,10.9
2023-04-17T14:15:42.000Z,11.2
2023-04-17T14:16:54.000Z,11.2
2023-04-17T14:18:06.000Z,11.2
2023-04-17T14:19:18.000Z,10.9
2023-04-17T14:20:31.000Z,10.6
2023-04-17T14:21:43.000Z,11.2
2023-04-17T14:22:55.000Z,11.2
2023-04-17T14:24:07.000Z,10.9
2023-04-17T14:25:19.000Z,10.6
2023-04-17T14:26:32.000Z,10.9
2023-04-17T14:27:44.000Z,10.3
2023-04-17T14:28:55.000Z,10.6
2023-04-17T14:30:07.000Z,9.9
2023-04-17T14:31:19.000Z,11.2
2023-04-17T14:32:31.000Z,11.6
2023-04-17T14:33:44.000Z,10.3
2023-04-17T14:34:56.000Z,10.9
2023-04-17T14:36:08.000Z,10.6
2023-04-17T14:37:20.000Z,9.9
2023-04-17T14:38:32.000Z,11.2
2023-04-17T14:39:45.000Z,10.6
2023-04-17T14:40:57.000Z,10.3
2023-04-17T14:42:09.000Z,10.3
2023-04-17T14:43:21.000Z,9.6
2023-04-17T14:44:32.000Z,10.6
2023-04-17T14:45:45.000Z,11.2
2023-04-17T14:46:57.000Z,10.6
2023-04-17T14:48:09.000Z,11.9
2023-04-17T14:49:21.000Z,10.9
2023-04-17T14:50:33.000Z,9.9
2023-04-17T14:51:45.000Z,10.6
2023-04-17T14:52:58.000Z,11.2
2023-04-17T14:54:10.000Z,10.3
2023-04-17T14:55:22.000Z,11.6
2023-04-17T14:56:34.000Z,10.9
2023-04-17T14:57:46.000Z,10.6
2023-04-17T14:58:59.000Z,11.2
2023-04-17T15:00:10.000Z,10.6
2023-04-17T15:01:22.000Z,10.3
2023-04-17T15:02:34.000Z,10.6
2023-04-17T15:03:46.000Z,10.6
2023-04-17T15:04:58.000Z,10.6
2023-04-17T15:06:11.000Z,11.2
2023-04-17T15:07:23.000Z,10.6
2023-04-17T15:09:46.703Z,10.9
2023-04-17T15:09:47.000Z,9.9
2023-04-17T15:10:59.000Z,10.3
2023-04-17T15:12:12.000Z,9.9
2023-04-17T15:13:24.000Z,9.9
2023-04-17T15:14:36.000Z,10.6
2023-04-17T15:15:47.000Z,10.3
2023-04-17T15:16:59.000Z,10.6
2023-04-17T15:18:12.000Z,10.6
2023-04-17T15:19:24.000Z,11.6
2023-04-17T15:20:36.000Z,10.3
2023-04-17T15:21:48.000Z,10.3
2023-04-17T15:23:00.000Z,9.9
2023-04-17T15:24:12.000Z,11.2
2023-04-17T15:25:25.000Z,11.2
2023-04-17T15:26:37.000Z,10.6
2023-04-17T15:27:49.000Z,9.9
2023-04-17T15:29:01.000Z,10.3
2023-04-17T15:30:13.000Z,10.6
2023-04-17T15:31:25.000Z,10.6
2023-04-17T15:32:37.000Z,10.6
2023-04-17T15:33:49.000Z,10.6
2023-04-17T15:35:01.000Z,11.2
2023-04-17T15:36:13.000Z,10.6
2023-04-17T15:37:25.000Z,10.6
2023-04-17T15:38:38.000Z,10.3
2023-04-17T15:39:50.000Z,10.3
2023-04-17T15:41:02.000Z,11.6
2023-04-17T15:42:14.000Z,10.3
2023-04-17T15:43:26.000Z,9.9
2023-04-17T15:44:39.000Z,9.9
2023-04-17T15:45:51.000Z,9.3
2023-04-17T15:47:02.000Z,9.9
2023-04-17T15:48:14.000Z,10.3
2023-04-17T15:49:26.000Z,10.3
2023-04-17T15:50:39.000Z,10.3
2023-04-17T15:51:51.000Z,10.3
2023-04-17T15:53:03.000Z,10.3
2023-04-17T15:54:14.000Z,10.9
2023-04-17T15:55:26.000Z,11.9
2023-04-17T15:56:38.000Z,10.3
2023-04-17T15:57:51.000Z,8.3
2023-04-17T15:59:03.000Z,9.9
2023-04-17T16:00:15.000Z,9.6
2023-04-17T16:01:27.000Z,10.3
2023-04-17T16:02:39.000Z,9.6
2023-04-17T16:03:52.000Z,9.6
2023-04-17T16:05:04.000Z,10.3
2023-04-17T16:06:16.000Z,9.9
2023-04-17T16:07:28.000Z,10.6
2023-04-17T16:08:40.000Z,9.9
2023-04-17T16:09:51.000Z,10.3
2023-04-17T16:11:04.000Z,10.9
2023-04-17T16:12:16.000Z,9.9
2023-04-17T16:13:28.000Z,9.9
2023-04-17T16:14:40.000Z,9.6
2023-04-17T16:15:52.000Z,9.9
2023-04-17T16:17:05.000Z,9.9
2023-04-17T16:18:17.000Z,9.9
2023-04-17T16:19:29.000Z,9.9
2023-04-17T16:20:41.000Z,9.9
2023-04-17T16:21:53.000Z,9.9
2023-04-17T16:23:06.000Z,9.6
2023-04-17T16:24:18.000Z,10.6
2023-04-17T16:25:29.000Z,9.9
2023-04-17T16:26:41.000Z,9.6
2023-04-17T16:27:53.000Z,9.9
2023-04-17T16:29:05.000Z,9.9